createdAt,value
2016-12-26T00:00:35.263Z,0
2016-12-26T00:01:50.329Z,0
2016-12-26T00:03:05.092Z,0
2016-12-26T00:04:19.540Z,0
2016-12-26T00:05:34.765Z,0
2016-12-26T00:06:49.285Z,0
2016-12-26T00:08:03.784Z,0
2016-12-26T00:09:18.940Z,0
2016-12-26T00:10:33.882Z,0
2016-12-26T00:11:48.703Z,0
2016-12-26T00:13:02.812Z,0
2016-12-26T00:14:16.965Z,0
2016-12-26T00:15:31.881Z,0
2016-12-26T00:16:46.990Z,0
2016-12-26T00:18:02.025Z,0
2016-12-26T00:19:16.769Z,0
2016-12-26T00:20:31.322Z,0
2016-12-26T00:21:46.241Z,0
2016-12-26T00:23:00.359Z,0
2016-12-26T00:24:15.209Z,0
2016-12-26T00:25:30.070Z,0
2016-12-26T00:26:45.384Z,0
2016-12-26T00:27:59.513Z,0
2016-12-26T00:29:14.330Z,0
2016-12-26T00:30:29.088Z,0
2016-12-26T00:31:43.517Z,0
2016-12-26T00:32:57.577Z,0
2016-12-26T00:34:12.080Z,0
2016-12-26T00:35:26.163Z,0
2016-12-26T00:36:41.184Z,0
2016-12-26T00:37:55.707Z,0
2016-12-26T00:39:09.775Z,0
2016-12-26T00:40:24.549Z,0
2016-12-26T00:41:40.297Z,0
2016-12-26T00:42:55.296Z,0
2016-12-26T00:44:09.651Z,0
2016-12-26T00:45:23.707Z,0
2016-12-26T00:46:38.282Z,0
2016-12-26T00:47:52.707Z,0
2016-12-26T00:49:07.473Z,0
2016-12-26T00:50:21.813Z,0
2016-12-26T00:51:35.971Z,0
2016-12-26T00:52:50.525Z,0
2016-12-26T00:54:05.030Z,0
2016-12-26T00:55:19.633Z,0
2016-12-26T00:56:33.758Z,0
2016-12-26T00:57:48.050Z,0
2016-12-26T00:59:02.478Z,0
2016-12-26T01:00:16.662Z,0
2016-12-26T01:01:33.679Z,0
2016-12-26T01:02:47.754Z,0
2016-12-26T01:04:02.116Z,0
2016-12-26T01:05:16.923Z,0
2016-12-26T01:06:31.415Z,0
2016-12-26T01:07:46.409Z,0
2016-12-26T01:09:00.460Z,0
2016-12-26T01:10:14.749Z,0
2016-12-26T01:11:28.824Z,0
2016-12-26T01:12:43.197Z,0
2016-12-26T01:13:57.690Z,0
2016-12-26T01:15:11.866Z,0
2016-12-26T01:16:26.202Z,0
2016-12-26T01:17:40.728Z,0
2016-12-26T01:18:55.017Z,0
2016-12-26T01:20:09.716Z,0
2016-12-26T01:21:23.847Z,0
2016-12-26T01:22:37.907Z,0
2016-12-26T01:23:52.708Z,0
2016-12-26T01:25:06.757Z,0
2016-12-26T01:26:21.068Z,0
2016-12-26T01:27:35.476Z,0
2016-12-26T01:28:49.904Z,0
2016-12-26T01:30:04.112Z,0
2016-12-26T01:31:18.901Z,0
2016-12-26T01:32:33.264Z,0
2016-12-26T01:33:47.991Z,0
2016-12-26T01:35:02.185Z,0
2016-12-26T01:36:16.327Z,0
2016-12-26T01:37:30.355Z,0
2016-12-26T01:38:44.983Z,0
2016-12-26T01:39:59.500Z,0
2016-12-26T01:41:14.195Z,0
2016-12-26T01:42:28.672Z,0
2016-12-26T01:43:43.364Z,0
2016-12-26T01:44:57.717Z,0
2016-12-26T01:46:11.757Z,0
2016-12-26T01:47:25.835Z,0
2016-12-26T01:48:39.865Z,0
2016-12-26T01:49:54.622Z,0
2016-12-26T01:51:08.926Z,0
2016-12-26T01:52:23.007Z,0
2016-12-26T01:53:37.045Z,0
2016-12-26T01:54:51.074Z,0
2016-12-26T01:56:05.203Z,0
2016-12-26T01:57:20.184Z,0
2016-12-26T01:58:34.274Z,0
2016-12-26T01:59:49.122Z,0
2016-12-26T02:01:03.558Z,0
2016-12-26T02:02:17.883Z,0
2016-12-26T02:03:32.975Z,0
2016-12-26T02:04:48.184Z,0
2016-12-26T02:06:02.647Z,0
2016-12-26T02:07:16.729Z,0
2016-12-26T02:08:31.001Z,0
2016-12-26T02:09:45.833Z,0
2016-12-26T02:11:00.211Z,0
2016-12-26T02:12:14.642Z,0
2016-12-26T02:13:29.573Z,0
2016-12-26T02:14:44.172Z,0
2016-12-26T02:15:58.498Z,0
2016-12-26T02:17:13.562Z,0
2016-12-26T02:18:30.335Z,0
2016-12-26T02:19:44.466Z,0
2016-12-26T02:20:58.678Z,0
2016-12-26T02:22:13.044Z,0
2016-12-26T02:23:27.150Z,0
2016-12-26T02:24:41.244Z,0
2016-12-26T02:25:55.963Z,0
2016-12-26T02:27:10.801Z,0
2016-12-26T02:28:25.194Z,0
2016-12-26T02:29:39.259Z,0
2016-12-26T02:30:53.712Z,0
2016-12-26T02:32:07.970Z,0
2016-12-26T02:33:22.603Z,0
2016-12-26T02:34:37.432Z,0
2016-12-26T02:35:52.206Z,0
2016-12-26T02:37:06.332Z,0
2016-12-26T02:38:20.405Z,0
2016-12-26T02:39:34.969Z,0
2016-12-26T02:40:49.266Z,0
2016-12-26T02:42:03.421Z,0
2016-12-26T02:43:17.721Z,0
2016-12-26T02:44:32.139Z,0
2016-12-26T02:45:46.370Z,0
2016-12-26T02:47:00.686Z,0
2016-12-26T02:48:14.714Z,0
2016-12-26T02:49:29.801Z,0
2016-12-26T02:50:43.994Z,0
2016-12-26T02:51:58.283Z,0
2016-12-26T02:53:12.576Z,0
2016-12-26T02:54:27.051Z,0
2016-12-26T02:55:41.393Z,0
2016-12-26T02:56:55.476Z,0
2016-12-26T02:58:10.405Z,0
2016-12-26T02:59:25.590Z,0
2016-12-26T03:00:39.943Z,0
2016-12-26T03:01:54.279Z,0
2016-12-26T03:03:08.770Z,0
2016-12-26T03:04:23.121Z,0
2016-12-26T03:05:37.498Z,0
2016-12-26T03:06:52.248Z,0
2016-12-26T03:08:06.712Z,0
2016-12-26T03:09:21.503Z,0
2016-12-26T03:10:36.153Z,0
2016-12-26T03:11:50.509Z,0
2016-12-26T03:13:04.823Z,0
2016-12-26T03:14:19.651Z,0
2016-12-26T03:15:33.804Z,0
2016-12-26T03:16:48.491Z,0
2016-12-26T03:18:03.167Z,0
2016-12-26T03:19:17.469Z,0
2016-12-26T03:20:31.862Z,0
2016-12-26T03:21:45.885Z,0
2016-12-26T03:23:00.048Z,0
2016-12-26T03:24:14.673Z,0
2016-12-26T03:25:28.839Z,0
2016-12-26T03:26:43.184Z,0
2016-12-26T03:27:57.212Z,0
2016-12-26T03:29:11.313Z,0
2016-12-26T03:30:25.624Z,0
2016-12-26T03:31:39.972Z,0
2016-12-26T03:32:54.411Z,0
2016-12-26T03:34:08.507Z,0
2016-12-26T03:35:25.063Z,0
2016-12-26T03:36:39.431Z,0
2016-12-26T03:37:53.489Z,0
2016-12-26T03:39:07.654Z,0
2016-12-26T03:40:22.781Z,0
2016-12-26T03:41:36.843Z,0
2016-12-26T03:42:52.131Z,0
2016-12-26T03:44:06.381Z,0
2016-12-26T03:45:20.835Z,0
2016-12-26T03:46:35.131Z,0
2016-12-26T03:47:49.149Z,0
2016-12-26T03:49:03.719Z,0
2016-12-26T03:50:18.480Z,0
2016-12-26T03:51:32.535Z,0
2016-12-26T03:52:47.203Z,0
2016-12-26T03:54:01.617Z,0
2016-12-26T03:55:16.331Z,0
2016-12-26T03:56:30.823Z,0
2016-12-26T03:57:44.844Z,0
2016-12-26T03:58:59.536Z,0
2016-12-26T04:00:28.648Z,0
2016-12-26T04:01:43.056Z,0
2016-12-26T04:02:57.339Z,0
2016-12-26T04:04:11.628Z,0
2016-12-26T04:05:25.715Z,0
2016-12-26T04:06:40.002Z,0
2016-12-26T04:07:54.144Z,0
2016-12-26T04:09:08.900Z,0
2016-12-26T04:10:56.181Z,0
2016-12-26T04:12:15.314Z,0
2016-12-26T04:13:36.950Z,0
2016-12-26T04:14:56.275Z,0
2016-12-26T04:16:12.735Z,0
2016-12-26T04:17:28.114Z,0
2016-12-26T04:18:45.540Z,0
2016-12-26T04:19:59.690Z,0
2016-12-26T04:21:13.742Z,0
2016-12-26T04:22:28.056Z,0
2016-12-26T04:23:42.404Z,0
2016-12-26T04:24:56.771Z,0
2016-12-26T04:26:10.840Z,0
2016-12-26T04:27:24.893Z,0
2016-12-26T04:28:38.923Z,0
2016-12-26T04:29:53.691Z,0
2016-12-26T04:31:08.091Z,0
2016-12-26T04:32:22.138Z,0
2016-12-26T04:33:36.437Z,0
2016-12-26T04:34:50.780Z,0
2016-12-26T04:36:05.079Z,0
2016-12-26T04:37:19.131Z,0
2016-12-26T04:38:33.193Z,0
2016-12-26T04:39:47.542Z,0
2016-12-26T04:41:02.002Z,0
2016-12-26T04:42:16.687Z,0
2016-12-26T04:43:31.089Z,0
2016-12-26T04:44:45.142Z,0
2016-12-26T04:45:59.474Z,0
2016-12-26T04:47:13.654Z,0
2016-12-26T04:48:28.191Z,0
2016-12-26T04:49:42.584Z,0
2016-12-26T04:50:56.655Z,0
2016-12-26T04:52:11.006Z,0
2016-12-26T04:53:27.575Z,0
2016-12-26T04:54:41.864Z,0
2016-12-26T04:55:55.961Z,0
2016-12-26T04:57:10.312Z,0
2016-12-26T04:58:24.352Z,0
2016-12-26T04:59:38.464Z,0
2016-12-26T05:00:53.473Z,0
2016-12-26T05:02:38.222Z,0
2016-12-26T05:04:11.097Z,0
2016-12-26T05:05:25.135Z,0
2016-12-26T05:06:39.434Z,0
2016-12-26T05:07:54.055Z,0
2016-12-26T05:09:09.074Z,0
2016-12-26T05:10:23.368Z,0
2016-12-26T05:11:37.468Z,0
2016-12-26T05:12:51.802Z,0
2016-12-26T05:14:05.892Z,0
2016-12-26T05:15:20.132Z,0
2016-12-26T05:16:34.174Z,0
2016-12-26T05:17:48.602Z,0
2016-12-26T05:19:03.243Z,0
2016-12-26T05:20:18.045Z,0
2016-12-26T05:21:32.126Z,0
2016-12-26T05:22:46.548Z,0
2016-12-26T05:24:00.944Z,0
2016-12-26T05:25:15.295Z,0
2016-12-26T05:26:29.948Z,0
2016-12-26T05:27:43.990Z,0
2016-12-26T05:28:58.024Z,0
2016-12-26T05:30:12.372Z,0
2016-12-26T05:31:26.783Z,0
2016-12-26T05:32:41.070Z,0
2016-12-26T05:33:55.383Z,0
2016-12-26T05:35:09.827Z,0
2016-12-26T05:36:23.859Z,0
2016-12-26T05:37:38.534Z,0
2016-12-26T05:38:53.014Z,0
2016-12-26T05:40:07.687Z,0
2016-12-26T05:41:21.775Z,0
2016-12-26T05:42:36.092Z,0
2016-12-26T05:43:50.830Z,0
2016-12-26T05:45:05.137Z,0
2016-12-26T05:46:19.227Z,0
2016-12-26T05:47:33.338Z,0
2016-12-26T05:48:47.951Z,0
2016-12-26T05:50:02.678Z,0
2016-12-26T05:51:17.389Z,0
2016-12-26T05:52:31.861Z,0
2016-12-26T05:53:45.922Z,0
2016-12-26T05:55:00.020Z,0
2016-12-26T05:56:14.368Z,0
2016-12-26T05:57:28.715Z,0
2016-12-26T05:58:43.432Z,0
2016-12-26T05:59:57.857Z,0
2016-12-26T06:01:12.010Z,0
2016-12-26T06:02:26.327Z,0
2016-12-26T06:03:40.666Z,0
2016-12-26T06:04:55.446Z,0
2016-12-26T06:06:09.490Z,0
2016-12-26T06:07:24.358Z,0
2016-12-26T06:08:39.397Z,0
2016-12-26T06:09:54.167Z,0
2016-12-26T06:11:11.176Z,0
2016-12-26T06:12:25.273Z,0
2016-12-26T06:13:39.749Z,0
2016-12-26T06:14:54.622Z,0
2016-12-26T06:16:09.008Z,0
2016-12-26T06:17:23.375Z,0
2016-12-26T06:18:37.891Z,0
2016-12-26T06:19:52.440Z,0
2016-12-26T06:21:06.856Z,0
2016-12-26T06:22:21.311Z,0
2016-12-26T06:23:35.411Z,0
2016-12-26T06:24:49.880Z,0
2016-12-26T06:26:05.066Z,0
2016-12-26T06:27:19.848Z,0
2016-12-26T06:28:34.347Z,0
2016-12-26T06:29:49.218Z,0
2016-12-26T06:31:03.393Z,0
2016-12-26T06:32:17.856Z,0
2016-12-26T06:33:33.219Z,0
2016-12-26T06:34:47.739Z,0
2016-12-26T06:36:02.642Z,0
2016-12-26T06:37:17.614Z,0
2016-12-26T06:38:32.361Z,0
2016-12-26T06:39:46.723Z,0
2016-12-26T06:41:01.071Z,0
2016-12-26T06:42:15.181Z,0
2016-12-26T06:43:29.949Z,0
2016-12-26T06:44:44.112Z,0
2016-12-26T06:45:59.040Z,0
2016-12-26T06:47:13.086Z,0
2016-12-26T06:48:27.771Z,0
2016-12-26T06:49:42.069Z,0
2016-12-26T06:50:56.403Z,0
2016-12-26T06:52:10.964Z,0
2016-12-26T06:53:25.308Z,0
2016-12-26T06:54:39.457Z,0
2016-12-26T06:55:53.528Z,0
2016-12-26T06:57:07.628Z,0
2016-12-26T06:58:22.187Z,0
2016-12-26T06:59:36.279Z,0
2016-12-26T07:00:50.882Z,0
2016-12-26T07:02:05.595Z,0
2016-12-26T07:03:20.027Z,0
2016-12-26T07:04:34.328Z,0
2016-12-26T07:05:48.384Z,0
2016-12-26T07:07:02.585Z,0
2016-12-26T07:08:17.893Z,0
2016-12-26T07:09:31.954Z,0
2016-12-26T07:10:46.995Z,0
2016-12-26T07:12:01.407Z,0
2016-12-26T07:13:15.896Z,0
2016-12-26T07:14:30.179Z,0
2016-12-26T07:15:44.442Z,0
2016-12-26T07:16:59.731Z,0
2016-12-26T07:18:14.431Z,0
2016-12-26T07:20:27.475Z,0
2016-12-26T07:21:41.798Z,0
2016-12-26T07:22:56.477Z,0
2016-12-26T07:24:25.325Z,0
2016-12-26T07:25:39.427Z,0
2016-12-26T07:26:53.512Z,0
2016-12-26T07:28:08.198Z,0
2016-12-26T07:29:25.327Z,0
2016-12-26T07:30:39.425Z,0
2016-12-26T07:31:53.726Z,0
2016-12-26T07:33:08.131Z,0
2016-12-26T07:34:22.537Z,0
2016-12-26T07:35:36.877Z,0
2016-12-26T07:36:51.270Z,0
2016-12-26T07:38:05.595Z,0
2016-12-26T07:39:19.655Z,0
2016-12-26T07:40:33.736Z,0
2016-12-26T07:41:48.389Z,0
2016-12-26T07:43:02.695Z,0
2016-12-26T07:44:16.728Z,0
2016-12-26T07:45:30.803Z,0
2016-12-26T07:46:44.920Z,0
2016-12-26T07:47:59.550Z,0
2016-12-26T07:49:14.353Z,0
2016-12-26T07:50:28.394Z,0
2016-12-26T07:51:42.546Z,0
2016-12-26T07:52:56.639Z,0
2016-12-26T07:54:11.611Z,0
2016-12-26T07:55:25.949Z,0
2016-12-26T07:56:40.297Z,5
2016-12-26T07:57:54.338Z,5
2016-12-26T07:59:08.596Z,5
2016-12-26T08:00:23.828Z,5
2016-12-26T08:01:38.311Z,5
2016-12-26T08:02:54.989Z,5
2016-12-26T08:04:09.760Z,5
2016-12-26T08:05:24.196Z,5
2016-12-26T08:06:38.745Z,5
2016-12-26T08:07:53.127Z,5
2016-12-26T08:09:07.275Z,5
2016-12-26T08:10:21.382Z,5
2016-12-26T08:11:35.462Z,5
2016-12-26T08:12:50.053Z,5
2016-12-26T08:14:04.921Z,5
2016-12-26T08:15:19.272Z,5
2016-12-26T08:16:33.361Z,5
2016-12-26T08:17:47.812Z,5
2016-12-26T08:19:02.169Z,5
2016-12-26T08:20:16.571Z,10
2016-12-26T08:21:30.997Z,10
2016-12-26T08:22:45.709Z,10
2016-12-26T08:24:00.103Z,15
2016-12-26T08:25:14.495Z,15
2016-12-26T08:26:28.686Z,15
2016-12-26T08:27:43.398Z,15
2016-12-26T08:28:57.443Z,15
2016-12-26T08:30:11.644Z,20
2016-12-26T08:31:26.568Z,20
2016-12-26T08:32:41.019Z,20
2016-12-26T08:33:55.068Z,15
2016-12-26T08:35:09.794Z,15
2016-12-26T08:36:23.882Z,15
2016-12-26T08:37:38.846Z,20
2016-12-26T08:38:53.287Z,20
2016-12-26T08:40:07.786Z,20
2016-12-26T08:41:22.519Z,25
2016-12-26T08:42:37.185Z,20
2016-12-26T08:43:52.574Z,25
2016-12-26T08:45:07.547Z,35
2016-12-26T08:46:24.616Z,40
2016-12-26T08:47:39.343Z,40
2016-12-26T08:48:53.433Z,55
2016-12-26T08:50:08.188Z,50
2016-12-26T08:51:22.579Z,55
2016-12-26T08:52:37.062Z,60
2016-12-26T08:53:52.134Z,60
2016-12-26T08:55:06.274Z,60
2016-12-26T08:56:20.626Z,70
2016-12-26T08:57:34.993Z,65
2016-12-26T08:58:49.080Z,65
2016-12-26T09:00:03.401Z,60
2016-12-26T09:01:17.808Z,60
2016-12-26T09:02:35.753Z,65
2016-12-26T09:03:50.106Z,60
2016-12-26T09:05:04.155Z,60
2016-12-26T09:06:18.443Z,60
2016-12-26T09:07:32.593Z,60
2016-12-26T09:08:47.783Z,65
2016-12-26T09:10:02.435Z,65
2016-12-26T09:11:16.797Z,65
2016-12-26T09:12:31.714Z,65
2016-12-26T09:13:45.912Z,65
2016-12-26T09:15:00.790Z,65
2016-12-26T09:16:15.482Z,65
2016-12-26T09:17:29.524Z,70
2016-12-26T09:18:45.002Z,75
2016-12-26T09:19:59.722Z,75
2016-12-26T09:21:14.022Z,75
2016-12-26T09:22:28.604Z,85
2016-12-26T09:23:43.306Z,85
2016-12-26T09:24:57.803Z,90
2016-12-26T09:26:11.824Z,85
2016-12-26T09:27:26.367Z,95
2016-12-26T09:28:40.811Z,100
2016-12-26T09:29:54.918Z,95
2016-12-26T09:31:09.306Z,95
2016-12-26T09:32:23.355Z,95
2016-12-26T09:33:38.031Z,90
2016-12-26T09:34:52.375Z,90
2016-12-26T09:36:07.382Z,90
2016-12-26T09:37:22.970Z,90
2016-12-26T09:38:37.353Z,90
2016-12-26T09:39:51.700Z,95
2016-12-26T09:41:06.275Z,100
2016-12-26T09:42:21.473Z,105
2016-12-26T09:43:35.784Z,105
2016-12-26T09:44:50.711Z,105
2016-12-26T09:46:05.507Z,90
2016-12-26T09:47:19.640Z,95
2016-12-26T09:48:33.810Z,115
2016-12-26T09:51:34.362Z,110
2016-12-26T09:52:48.801Z,125
2016-12-26T09:54:03.700Z,115
2016-12-26T09:55:18.013Z,115
2016-12-26T09:56:32.243Z,115
2016-12-26T09:57:47.016Z,130
2016-12-26T09:59:02.369Z,130
2016-12-26T10:00:16.588Z,135
2016-12-26T10:01:30.654Z,135
2016-12-26T10:02:44.715Z,130
2016-12-26T10:04:02.154Z,115
2016-12-26T10:05:16.639Z,95
2016-12-26T10:06:31.001Z,90
2016-12-26T10:07:45.419Z,75
2016-12-26T10:09:00.351Z,65
2016-12-26T10:10:14.667Z,75
2016-12-26T10:11:29.042Z,85
2016-12-26T10:12:43.395Z,95
2016-12-26T10:13:57.618Z,75
2016-12-26T10:15:11.719Z,70
2016-12-26T10:16:26.499Z,70
2016-12-26T10:17:40.978Z,85
2016-12-26T10:18:55.030Z,85
2016-12-26T10:20:10.084Z,80
2016-12-26T10:21:24.486Z,95
2016-12-26T10:22:39.278Z,90
2016-12-26T10:23:53.769Z,95
2016-12-26T10:25:08.296Z,100
2016-12-26T10:26:22.973Z,90
2016-12-26T10:27:37.444Z,95
2016-12-26T10:28:51.803Z,95
2016-12-26T10:30:06.462Z,95
2016-12-26T10:31:20.592Z,100
2016-12-26T10:32:35.165Z,105
2016-12-26T10:33:49.603Z,100
2016-12-26T10:35:03.975Z,100
2016-12-26T10:36:18.480Z,100
2016-12-26T10:37:32.643Z,105
2016-12-26T10:38:46.879Z,100
2016-12-26T10:40:01.373Z,100
2016-12-26T10:41:16.101Z,105
2016-12-26T10:42:30.422Z,105
2016-12-26T10:43:44.534Z,110
2016-12-26T10:44:58.999Z,105
2016-12-26T10:46:13.432Z,115
2016-12-26T10:47:28.146Z,110
2016-12-26T10:48:42.610Z,115
2016-12-26T10:49:56.762Z,115
2016-12-26T10:51:11.077Z,100
2016-12-26T10:52:25.832Z,90
2016-12-26T10:53:40.155Z,95
2016-12-26T10:54:54.823Z,90
2016-12-26T10:56:09.438Z,85
2016-12-26T10:57:23.912Z,100
2016-12-26T10:58:38.050Z,75
2016-12-26T10:59:52.785Z,75
2016-12-26T11:01:07.412Z,70
2016-12-26T11:02:21.913Z,85
2016-12-26T11:03:36.235Z,95
2016-12-26T11:04:50.705Z,80
2016-12-26T11:06:05.164Z,100
2016-12-26T11:07:19.457Z,95
2016-12-26T11:08:35.338Z,70
2016-12-26T11:09:50.033Z,65
2016-12-26T11:11:04.094Z,65
2016-12-26T11:12:18.408Z,90
2016-12-26T11:13:32.930Z,85
2016-12-26T11:14:47.220Z,80
2016-12-26T11:16:01.550Z,85
2016-12-26T11:17:16.119Z,90
2016-12-26T11:18:30.471Z,100
2016-12-26T11:19:44.994Z,105
2016-12-26T11:21:01.860Z,105
2016-12-26T11:22:16.301Z,105
2016-12-26T11:23:30.978Z,95
2016-12-26T11:24:45.292Z,105
2016-12-26T11:25:59.618Z,115
2016-12-26T11:27:29.660Z,95
2016-12-26T11:28:43.715Z,100
2016-12-26T11:29:58.430Z,110
2016-12-26T11:31:12.709Z,115
2016-12-26T11:32:26.818Z,115
2016-12-26T11:33:41.480Z,110
2016-12-26T11:34:55.842Z,105
2016-12-26T11:36:10.579Z,110
2016-12-26T11:37:39.843Z,115
2016-12-26T11:38:54.002Z,110
2016-12-26T11:40:08.447Z,115
2016-12-26T11:41:23.681Z,120
2016-12-26T11:42:39.343Z,135
2016-12-26T11:43:53.436Z,145
2016-12-26T11:45:07.697Z,135
2016-12-26T11:46:22.164Z,125
2016-12-26T11:47:51.337Z,110
2016-12-26T11:49:05.802Z,85
2016-12-26T11:50:19.951Z,65
2016-12-26T11:51:34.400Z,60
2016-12-26T11:52:48.529Z,45
2016-12-26T11:54:03.073Z,35
2016-12-26T11:55:17.396Z,25
2016-12-26T11:56:31.482Z,30
2016-12-26T11:57:46.017Z,40
2016-12-26T11:59:00.425Z,55
2016-12-26T12:00:15.080Z,50
2016-12-26T12:01:29.406Z,55
2016-12-26T12:02:43.902Z,65
2016-12-26T12:03:58.084Z,70
2016-12-26T12:05:12.842Z,45
2016-12-26T12:06:27.242Z,40
2016-12-26T12:07:41.354Z,45
2016-12-26T12:08:55.860Z,60
2016-12-26T12:10:09.941Z,60
2016-12-26T12:11:24.508Z,75
2016-12-26T12:12:39.938Z,65
2016-12-26T12:13:54.089Z,60
2016-12-26T12:15:08.953Z,55
2016-12-26T12:16:23.614Z,45
2016-12-26T12:17:38.891Z,50
2016-12-26T12:18:53.693Z,50
2016-12-26T12:20:08.259Z,50
2016-12-26T12:21:23.204Z,30
2016-12-26T12:22:37.539Z,35
2016-12-26T12:23:52.669Z,30
2016-12-26T12:25:07.098Z,20
2016-12-26T12:26:21.506Z,10
2016-12-26T12:27:35.846Z,15
2016-12-26T12:28:50.642Z,25
2016-12-26T12:30:05.644Z,35
2016-12-26T12:31:20.360Z,30
2016-12-26T12:32:34.932Z,30
2016-12-26T12:33:49.300Z,40
2016-12-26T12:35:04.065Z,40
2016-12-26T12:36:18.455Z,45
2016-12-26T12:37:33.596Z,40
2016-12-26T12:38:50.796Z,45
2016-12-26T12:40:05.046Z,40
2016-12-26T12:41:19.962Z,40
2016-12-26T12:42:34.028Z,45
2016-12-26T12:43:48.638Z,50
2016-12-26T12:45:02.971Z,55
2016-12-26T12:46:17.444Z,55
2016-12-26T12:47:31.969Z,65
2016-12-26T12:48:46.401Z,70
2016-12-26T12:50:01.119Z,75
2016-12-26T12:51:15.452Z,75
2016-12-26T12:52:30.730Z,75
2016-12-26T12:53:44.982Z,75
2016-12-26T12:55:01.016Z,80
2016-12-26T12:56:16.760Z,85
2016-12-26T12:57:32.923Z,85
2016-12-26T12:59:01.814Z,80
2016-12-26T13:00:16.786Z,75
2016-12-26T13:01:31.533Z,75
2016-12-26T13:02:47.430Z,80
2016-12-26T13:04:02.020Z,75
2016-12-26T13:05:16.570Z,75
2016-12-26T13:06:31.518Z,70
2016-12-26T13:07:46.004Z,60
2016-12-26T13:09:00.187Z,55
2016-12-26T13:10:14.572Z,50
2016-12-26T13:11:29.384Z,50
2016-12-26T13:12:43.855Z,50
2016-12-26T13:13:58.455Z,60
2016-12-26T13:15:12.516Z,55
2016-12-26T13:16:27.240Z,55
2016-12-26T13:17:41.864Z,50
2016-12-26T13:18:55.919Z,45
2016-12-26T13:20:10.219Z,40
2016-12-26T13:21:24.568Z,35
2016-12-26T13:22:39.565Z,35
2016-12-26T13:23:53.806Z,30
2016-12-26T13:25:08.728Z,30
2016-12-26T13:26:23.606Z,30
2016-12-26T13:27:38.156Z,30
2016-12-26T13:28:52.565Z,30
2016-12-26T13:30:06.729Z,30
2016-12-26T13:31:21.207Z,30
2016-12-26T13:32:35.633Z,30
2016-12-26T13:33:50.559Z,35
2016-12-26T13:35:04.909Z,35
2016-12-26T13:36:19.513Z,30
2016-12-26T13:37:34.444Z,30
2016-12-26T13:38:49.925Z,30
2016-12-26T13:40:04.156Z,30
2016-12-26T13:41:18.209Z,30
2016-12-26T13:42:32.652Z,30
2016-12-26T13:43:46.795Z,35
2016-12-26T13:45:01.230Z,35
2016-12-26T13:46:15.803Z,35
2016-12-26T13:47:30.120Z,35
2016-12-26T13:48:44.866Z,40
2016-12-26T13:49:59.205Z,40
2016-12-26T13:51:14.076Z,50
2016-12-26T13:52:43.404Z,45
2016-12-26T13:53:59.218Z,35
2016-12-26T13:55:13.333Z,35
2016-12-26T13:56:30.229Z,30
2016-12-26T13:57:44.465Z,25
2016-12-26T13:58:58.641Z,25
2016-12-26T14:00:12.793Z,25
2016-12-26T14:01:26.910Z,20
2016-12-26T14:02:41.824Z,20
2016-12-26T14:03:56.983Z,20
2016-12-26T14:05:11.301Z,15
2016-12-26T14:06:25.841Z,20
2016-12-26T14:07:39.907Z,20
2016-12-26T14:08:54.565Z,25
2016-12-26T14:10:08.822Z,25
2016-12-26T14:11:23.248Z,20
2016-12-26T14:12:37.962Z,25
2016-12-26T14:13:52.640Z,25
2016-12-26T14:15:08.329Z,20
2016-12-26T14:16:22.973Z,20
2016-12-26T14:17:37.690Z,15
2016-12-26T14:18:51.840Z,15
2016-12-26T14:20:06.526Z,15
2016-12-26T14:21:20.831Z,15
2016-12-26T14:22:35.498Z,15
2016-12-26T14:23:50.620Z,15
2016-12-26T14:25:04.989Z,15
2016-12-26T14:26:19.415Z,20
2016-12-26T14:27:34.343Z,25
2016-12-26T14:28:49.052Z,25
2016-12-26T14:30:03.499Z,30
2016-12-26T14:31:18.224Z,35
2016-12-26T14:32:32.323Z,40
2016-12-26T14:33:47.244Z,40
2016-12-26T14:35:01.477Z,40
2016-12-26T14:36:15.985Z,40
2016-12-26T14:37:30.716Z,40
2016-12-26T14:38:45.946Z,40
2016-12-26T14:40:00.978Z,40
2016-12-26T14:41:15.019Z,40
2016-12-26T14:42:29.892Z,40
2016-12-26T14:43:44.392Z,40
2016-12-26T14:44:58.482Z,40
2016-12-26T14:46:12.969Z,40
2016-12-26T14:47:27.384Z,40
2016-12-26T14:48:42.287Z,35
2016-12-26T14:49:57.045Z,35
2016-12-26T14:51:11.135Z,35
2016-12-26T14:52:25.913Z,35
2016-12-26T14:53:40.393Z,35
2016-12-26T14:57:52.310Z,30
2016-12-26T14:59:06.396Z,25
2016-12-26T15:00:20.463Z,25
2016-12-26T15:01:35.202Z,25
2016-12-26T15:02:49.879Z,25
2016-12-26T15:04:05.017Z,20
2016-12-26T15:05:19.162Z,20
2016-12-26T15:06:33.330Z,20
2016-12-26T15:07:47.758Z,20
2016-12-26T15:09:01.845Z,20
2016-12-26T15:10:16.246Z,15
2016-12-26T15:11:30.993Z,15
2016-12-26T15:12:45.463Z,15
2016-12-26T15:13:59.810Z,15
2016-12-26T15:15:16.576Z,15
2016-12-26T15:16:30.968Z,10
2016-12-26T15:17:45.315Z,10
2016-12-26T15:19:00.501Z,10
2016-12-26T15:20:14.571Z,10
2016-12-26T15:21:29.233Z,10
2016-12-26T15:22:44.060Z,5
2016-12-26T15:23:58.450Z,5
2016-12-26T15:25:13.284Z,5
2016-12-26T15:26:27.404Z,5
2016-12-26T15:27:41.910Z,5
2016-12-26T15:28:56.948Z,5
2016-12-26T15:30:11.502Z,0
2016-12-26T15:31:26.221Z,0
2016-12-26T15:32:40.738Z,0
2016-12-26T15:33:55.061Z,0
2016-12-26T15:35:09.753Z,0
2016-12-26T15:36:23.928Z,0
2016-12-26T15:37:38.714Z,0
2016-12-26T15:38:52.862Z,0
2016-12-26T15:40:07.601Z,0
2016-12-26T15:41:23.458Z,0
2016-12-26T15:42:38.080Z,0
2016-12-26T15:43:53.202Z,0
2016-12-26T15:45:07.694Z,0
2016-12-26T15:46:22.680Z,0
2016-12-26T15:47:37.495Z,0
2016-12-26T15:48:52.424Z,0
2016-12-26T15:50:21.977Z,0
2016-12-26T15:51:36.445Z,0
2016-12-26T15:52:51.415Z,0
2016-12-26T15:54:06.870Z,0
2016-12-26T15:55:22.052Z,0
2016-12-26T15:56:36.356Z,0
2016-12-26T15:57:50.959Z,0
2016-12-26T15:59:06.228Z,0
2016-12-26T16:00:20.709Z,0
2016-12-26T16:01:35.331Z,0
2016-12-26T16:02:50.274Z,0
2016-12-26T16:04:05.055Z,0
2016-12-26T16:05:23.108Z,0
2016-12-26T16:06:41.012Z,0
2016-12-26T16:07:57.492Z,0
2016-12-26T16:09:12.007Z,0
2016-12-26T16:10:27.308Z,0
2016-12-26T16:11:42.811Z,0
2016-12-26T16:12:57.344Z,0
2016-12-26T16:14:12.005Z,0
2016-12-26T16:15:27.216Z,0
2016-12-26T16:16:42.463Z,0
2016-12-26T16:17:57.354Z,0
2016-12-26T16:20:42.043Z,0
2016-12-26T16:21:56.540Z,0
2016-12-26T16:23:11.262Z,0
2016-12-26T16:24:28.842Z,0
2016-12-26T16:25:43.258Z,0
2016-12-26T16:26:58.517Z,0
2016-12-26T16:28:14.692Z,0
2016-12-26T16:29:29.966Z,0
2016-12-26T16:30:45.206Z,0
2016-12-26T16:31:59.586Z,0
2016-12-26T16:33:16.418Z,0
2016-12-26T16:34:30.800Z,0
2016-12-26T16:35:45.498Z,0
2016-12-26T16:37:00.619Z,0
2016-12-26T16:38:15.421Z,0
2016-12-26T16:39:29.992Z,0
2016-12-26T16:40:44.526Z,0
2016-12-26T16:41:59.661Z,0
2016-12-26T16:43:15.047Z,0
2016-12-26T16:44:31.466Z,0
2016-12-26T16:45:46.658Z,0
2016-12-26T16:47:02.015Z,0
2016-12-26T16:48:18.396Z,0
2016-12-26T16:49:34.236Z,0
2016-12-26T16:50:50.007Z,0
2016-12-26T16:52:06.304Z,0
2016-12-26T16:53:21.058Z,0
2016-12-26T16:54:36.562Z,0
2016-12-26T16:55:52.364Z,0
2016-12-26T16:57:10.252Z,0
2016-12-26T16:58:26.446Z,0
2016-12-26T16:59:42.479Z,0
2016-12-26T17:00:59.479Z,0
2016-12-26T17:02:15.132Z,0
2016-12-26T17:03:30.730Z,0
2016-12-26T17:04:46.281Z,0
2016-12-26T17:06:01.065Z,0
2016-12-26T17:07:18.378Z,0
2016-12-26T17:08:35.606Z,0
2016-12-26T17:09:50.562Z,0
2016-12-26T17:11:05.469Z,0
2016-12-26T17:12:21.466Z,0
2016-12-26T17:13:36.617Z,0
2016-12-26T17:14:51.231Z,0
2016-12-26T17:16:06.312Z,0
2016-12-26T17:17:22.547Z,0
2016-12-26T17:18:38.197Z,0
2016-12-26T17:19:54.843Z,0
2016-12-26T17:21:09.662Z,0
2016-12-26T17:22:24.741Z,0
2016-12-26T17:23:40.953Z,0
2016-12-26T17:24:56.263Z,0
2016-12-26T17:27:41.608Z,0
2016-12-26T17:28:56.342Z,0
2016-12-26T17:30:10.584Z,0
2016-12-26T17:31:25.667Z,0
2016-12-26T17:32:41.401Z,0
2016-12-26T17:33:58.051Z,0
2016-12-26T17:35:12.967Z,0
2016-12-26T17:36:29.281Z,0
2016-12-26T17:37:43.761Z,0
2016-12-26T17:38:58.638Z,0
2016-12-26T17:40:13.817Z,0
2016-12-26T17:41:28.738Z,0
2016-12-26T17:42:43.389Z,0
2016-12-26T17:43:57.913Z,0
2016-12-26T17:45:13.198Z,0
2016-12-26T17:46:27.613Z,0
2016-12-26T17:47:42.179Z,0
2016-12-26T17:48:56.675Z,0
2016-12-26T17:50:11.041Z,0
2016-12-26T17:51:27.465Z,0
2016-12-26T17:52:41.562Z,0
2016-12-26T17:55:09.665Z,0
2016-12-26T17:56:24.392Z,0
2016-12-26T17:57:38.610Z,0
2016-12-26T17:58:53.107Z,0
2016-12-26T18:00:07.695Z,0
2016-12-26T18:01:22.450Z,0
2016-12-26T18:02:37.472Z,0
2016-12-26T18:03:52.804Z,0
2016-12-26T18:05:07.393Z,0
2016-12-26T18:06:22.129Z,0
2016-12-26T18:07:36.612Z,0
2016-12-26T18:08:51.397Z,0
2016-12-26T18:10:06.457Z,0
2016-12-26T18:11:20.684Z,0
2016-12-26T18:12:35.153Z,0
2016-12-26T18:13:50.751Z,0
2016-12-26T18:15:05.557Z,0
2016-12-26T18:16:19.880Z,0
2016-12-26T18:17:34.668Z,0
2016-12-26T18:18:49.635Z,0